Time;durP1;ratioP1;P1;durP2;ratioP2;P2;SDS_P1;SDS_P2;PMS_P1;PMS_P2;Temp;Humidity;BMP_temperature;BMP_pressure;BME280_temperature;BME280_humidity;BME280_pressure;Samples;Min_cycle;Max_cycle;Signal;HPM_P1;HPM_P2
2022/06/11 00:01:35;;;;;;;18.83;7.60;;;;;;;;;;5035558;28;20025;-76
2022/06/11 00:04:04;;;;;;;15.95;7.18;;;;;;;;;;5035512;28;20033;-76
2022/06/11 00:06:31;;;;;;;10.55;6.97;;;;;;;;;;5035594;28;20028;-76
2022/06/11 00:08:58;;;;;;;18.05;7.00;;;;;;;;;;5034165;28;20032;-76
2022/06/11 00:11:24;;;;;;;13.93;6.60;;;;;;;;;;5035395;28;20075;-76
2022/06/11 00:13:50;;;;;;;11.65;5.28;;;;;;;;;;5035458;28;20029;-76
2022/06/11 00:16:17;;;;;;;11.02;4.97;;;;;;;;;;5035424;28;20029;-76
2022/06/11 00:18:44;;;;;;;14.45;5.15;;;;;;;;;;5035248;28;20033;-75
2022/06/11 00:21:10;;;;;;;9.75;4.68;;;;;;;;;;5035362;28;20092;-76
2022/06/11 00:23:37;;;;;;;12.52;4.65;;;;;;;;;;5035174;28;20022;-76
2022/06/11 00:26:03;;;;;;;8.90;4.63;;;;;;;;;;5035184;28;20056;-76
2022/06/11 00:28:30;;;;;;;8.93;4.10;;;;;;;;;;5051862;28;20104;-76
2022/06/11 00:30:56;;;;;;;12.07;4.43;;;;;;;;;;5046881;28;20020;-76
2022/06/11 00:33:22;;;;;;;9.57;4.30;;;;;;;;;;5035199;28;20356;-76
2022/06/11 00:35:48;;;;;;;6.70;3.97;;;;;;;;;;5034951;28;20034;-76
2022/06/11 00:38:14;;;;;;;8.75;3.92;;;;;;;;;;5034893;28;20037;-76
2022/06/11 00:40:42;;;;;;;6.70;4.03;;;;;;;;;;5034976;28;20531;-76
2022/06/11 00:43:09;;;;;;;11.43;4.28;;;;;;;;;;5034885;28;20104;-76
2022/06/11 00:45:41;;;;;;;9.93;4.15;;;;;;;;;;5034690;28;20048;-76
2022/06/11 00:48:18;;;;;;;8.25;3.88;;;;;;;;;;5033375;28;20029;-76
2022/06/11 00:50:49;;;;;;;6.05;3.25;;;;;;;;;;5034676;28;20037;-76
2022/06/11 00:53:18;;;;;;;6.97;3.60;;;;;;;;;;5034727;28;20087;-76
2022/06/11 00:55:45;;;;;;;9.15;3.38;;;;;;;;;;5033284;28;20367;-76
2022/06/11 00:58:23;;;;;;;7.90;3.67;;;;;;;;;;5034604;28;20040;-76
2022/06/11 01:00:52;;;;;;;8.02;3.55;;;;;;;;;;5034382;28;20079;-76
2022/06/11 01:03:19;;;;;;;6.50;3.40;;;;;;;;;;5034643;28;20435;-75
2022/06/11 01:05:51;;;;;;;6.82;3.20;;;;;;;;;;5045685;28;20025;-75
2022/06/11 01:08:36;;;;;;;8.48;3.10;;;;;;;;;;5054441;28;20029;-77
2022/06/11 01:11:05;;;;;;;4.78;2.90;;;;;;;;;;5053993;28;20025;-75
2022/06/11 01:13:51;;;;;;;6.05;3.08;;;;;;;;;;5054138;28;20538;-76
2022/06/11 01:16:23;;;;;;;7.22;3.10;;;;;;;;;;5054204;28;20029;-76
2022/06/11 01:19:07;;;;;;;7.68;3.40;;;;;;;;;;5054080;28;20083;-76
2022/06/11 01:21:48;;;;;;;8.13;3.28;;;;;;;;;;5052882;28;20033;-76
2022/06/11 01:24:18;;;;;;;7.88;3.28;;;;;;;;;;5054016;28;20028;-76
2022/06/11 01:27:16;;;;;;;7.22;2.92;;;;;;;;;;5053780;28;20060;-76
2022/06/11 01:29:50;;;;;;;8.10;3.35;;;;;;;;;;5011883;28;20046;-76
2022/06/11 01:32:16;;;;;;;6.80;2.72;;;;;;;;;;5011695;28;20032;-76
2022/06/11 01:35:01;;;;;;;8.88;3.15;;;;;;;;;;5011834;28;20066;-76
2022/06/11 01:37:40;;;;;;;6.63;2.90;;;;;;;;;;5011786;28;20030;-76
2022/06/11 01:40:11;;;;;;;7.03;3.10;;;;;;;;;;5011680;28;20030;-76
2022/06/11 01:42:46;;;;;;;4.38;3.05;;;;;;;;;;5011756;28;20033;-76
2022/06/11 01:45:14;;;;;;;5.93;3.20;;;;;;;;;;5011281;28;20084;-76
2022/06/11 01:47:42;;;;;;;6.00;3.20;;;;;;;;;;5011495;28;20038;-75
2022/06/11 01:50:09;;;;;;;6.18;3.10;;;;;;;;;;5011498;28;20044;-76
2022/06/11 01:52:40;;;;;;;6.07;3.08;;;;;;;;;;5011517;28;20050;-75
2022/06/11 01:55:12;;;;;;;7.07;3.50;;;;;;;;;;5011612;28;20036;-76
2022/06/11 01:57:38;;;;;;;7.70;3.90;;;;;;;;;;5011242;28;20060;-76
2022/06/11 02:00:16;;;;;;;8.52;3.67;;;;;;;;;;5011447;28;20499;-76
2022/06/11 02:02:42;;;;;;;5.40;3.30;;;;;;;;;;5011243;28;20039;-75
2022/06/11 02:05:13;;;;;;;7.30;3.20;;;;;;;;;;5029445;28;20041;-76
2022/06/11 02:07:44;;;;;;;6.38;4.13;;;;;;;;;;5053397;28;20425;-76
2022/06/11 02:10:16;;;;;;;7.82;3.92;;;;;;;;;;5053247;28;20021;-76
2022/06/11 02:12:46;;;;;;;7.68;3.67;;;;;;;;;;5053110;28;20098;-76
2022/06/11 02:15:16;;;;;;;7.40;3.67;;;;;;;;;;5052928;28;20489;-76
2022/06/11 02:17:44;;;;;;;7.90;4.30;;;;;;;;;;5052933;28;20159;-75
2022/06/11 02:20:14;;;;;;;11.65;3.95;;;;;;;;;;5053062;28;20032;-76
2022/06/11 02:22:45;;;;;;;12.73;4.25;;;;;;;;;;5052522;28;20025;-76
2022/06/11 02:25:15;;;;;;;6.78;3.88;;;;;;;;;;5052861;28;20527;-76
2022/06/11 02:27:42;;;;;;;10.27;4.03;;;;;;;;;;5051304;28;20041;-76
2022/06/11 02:30:10;;;;;;;11.68;4.30;;;;;;;;;;5051130;28;20312;-75
2022/06/11 02:32:37;;;;;;;9.88;4.07;;;;;;;;;;5032738;28;20036;-76
2022/06/11 02:35:06;;;;;;;9.57;4.10;;;;;;;;;;5032757;28;20113;-76
2022/06/11 02:37:37;;;;;;;10.82;4.10;;;;;;;;;;5032748;28;20079;-76
2022/06/11 02:40:07;;;;;;;8.60;3.50;;;;;;;;;;5032645;28;20026;-76
2022/06/11 02:42:33;;;;;;;12.70;4.38;;;;;;;;;;5032727;28;20025;-76
2022/06/11 02:44:59;;;;;;;11.10;4.05;;;;;;;;;;5032341;28;20081;-76
2022/06/11 02:47:26;;;;;;;6.13;3.60;;;;;;;;;;5032606;28;20088;-76
2022/06/11 02:49:52;;;;;;;7.80;3.88;;;;;;;;;;5032500;28;20550;-76
2022/06/11 02:52:22;;;;;;;9.55;3.60;;;;;;;;;;5032578;28;20060;-76
2022/06/11 02:54:52;;;;;;;6.78;3.50;;;;;;;;;;5032410;28;20029;-76
2022/06/11 02:57:20;;;;;;;9.10;3.42;;;;;;;;;;5032320;28;20116;-76
2022/06/11 02:59:47;;;;;;;6.88;3.28;;;;;;;;;;5032262;28;20459;-76
2022/06/11 03:02:13;;;;;;;5.65;3.47;;;;;;;;;;5032321;28;20472;-76
2022/06/11 03:04:40;;;;;;;5.25;2.70;;;;;;;;;;5034508;28;20376;-76
2022/06/11 03:07:08;;;;;;;9.93;4.03;;;;;;;;;;5052347;28;20402;-76
2022/06/11 03:09:35;;;;;;;6.47;2.95;;;;;;;;;;5052099;28;20154;-76
2022/06/11 03:12:02;;;;;;;8.10;3.60;;;;;;;;;;5052093;28;20483;-76
2022/06/11 03:14:28;;;;;;;5.60;3.35;;;;;;;;;;5052021;28;20083;-76
2022/06/11 03:16:54;;;;;;;7.70;3.00;;;;;;;;;;5051908;28;20030;-76
2022/06/11 03:19:20;;;;;;;8.38;3.35;;;;;;;;;;5051956;28;20087;-75
2022/06/11 03:21:46;;;;;;;7.45;3.20;;;;;;;;;;5052106;28;20029;-76
2022/06/11 03:24:12;;;;;;;8.68;3.47;;;;;;;;;;5051845;28;20025;-76
2022/06/11 03:26:38;;;;;;;8.13;3.22;;;;;;;;;;5051853;28;20108;-76
2022/06/11 03:29:05;;;;;;;6.25;3.38;;;;;;;;;;5051910;28;20036;-76
2022/06/11 03:31:31;;;;;;;5.25;2.90;;;;;;;;;;5039023;28;20096;-76
2022/06/11 03:33:57;;;;;;;6.43;2.75;;;;;;;;;;5031816;28;20036;-76
2022/06/11 03:36:23;;;;;;;10.00;3.58;;;;;;;;;;5032041;28;20026;-76
2022/06/11 03:38:49;;;;;;;11.43;4.18;;;;;;;;;;5031852;28;20140;-76
2022/06/11 03:41:16;;;;;;;8.35;3.03;;;;;;;;;;5031774;28;20452;-76
2022/06/11 03:43:42;;;;;;;8.70;2.95;;;;;;;;;;5031821;28;20037;-76
2022/06/11 03:46:08;;;;;;;6.20;2.95;;;;;;;;;;5031605;28;20076;-76
2022/06/11 03:48:36;;;;;;;7.07;2.85;;;;;;;;;;5031779;28;20388;-75
2022/06/11 03:51:03;;;;;;;5.07;2.80;;;;;;;;;;5031889;28;20451;-76
2022/06/11 03:53:30;;;;;;;7.63;2.65;;;;;;;;;;5031766;28;20022;-76
2022/06/11 03:55:56;;;;;;;6.70;2.80;;;;;;;;;;5032052;28;20030;-75
2022/06/11 03:58:22;;;;;;;9.27;3.10;;;;;;;;;;5032595;28;20026;-75
2022/06/11 04:03:34;;;;;;;6.22;2.28;;;;;;;;;;5032508;28;20098;-75
2022/06/11 04:06:00;;;;;;;5.88;2.72;;;;;;;;;;5045576;28;20474;-75
2022/06/11 04:08:26;;;;;;;6.60;2.50;;;;;;;;;;5052306;28;20384;-75
2022/06/11 04:10:54;;;;;;;6.75;1.85;;;;;;;;;;5052251;28;20195;-75
2022/06/11 04:13:20;;;;;;;6.07;2.22;;;;;;;;;;5052203;28;20021;-75
2022/06/11 04:15:47;;;;;;;5.18;2.00;;;;;;;;;;5051888;28;20032;-75
2022/06/11 04:18:26;;;;;;;5.32;2.60;;;;;;;;;;5052364;28;20017;-76
2022/06/11 04:20:52;;;;;;;6.47;1.67;;;;;;;;;;5052089;28;20097;-75
2022/06/11 04:23:19;;;;;;;6.35;1.80;;;;;;;;;;5052105;28;20033;-75
2022/06/11 04:25:45;;;;;;;6.72;1.88;;;;;;;;;;5052356;28;20040;-76
2022/06/11 04:28:11;;;;;;;11.02;1.85;;;;;;;;;;5052490;28;20029;-76
2022/06/11 04:30:38;;;;;;;8.10;1.83;;;;;;;;;;5052008;28;20383;-75
2022/06/11 04:33:04;;;;;;;7.50;1.83;;;;;;;;;;5051976;28;20040;-75
2022/06/11 04:35:30;;;;;;;5.22;1.75;;;;;;;;;;5052120;28;20540;-75
2022/06/11 04:37:56;;;;;;;5.63;1.60;;;;;;;;;;5052035;28;20029;-75
2022/06/11 04:40:22;;;;;;;13.80;2.10;;;;;;;;;;5051835;28;20100;-75
2022/06/11 04:42:48;;;;;;;9.60;1.48;;;;;;;;;;5052299;28;20059;-76
2022/06/11 04:45:16;;;;;;;11.45;2.05;;;;;;;;;;5053903;28;20049;-75
2022/06/11 04:47:42;;;;;;;9.02;1.92;;;;;;;;;;5055628;28;20029;-75
2022/06/11 04:50:09;;;;;;;12.35;2.45;;;;;;;;;;5055640;28;20505;-75
2022/06/11 04:52:35;;;;;;;12.63;1.80;;;;;;;;;;5055774;28;20033;-75
2022/06/11 04:55:01;;;;;;;8.18;1.63;;;;;;;;;;5055535;28;20076;-75
2022/06/11 04:57:27;;;;;;;10.95;1.67;;;;;;;;;;5055172;28;20420;-75
2022/06/11 04:59:53;;;;;;;14.40;2.42;;;;;;;;;;5055562;28;20013;-75
2022/06/11 05:02:20;;;;;;;11.60;2.15;;;;;;;;;;5055245;28;20086;-75
2022/06/11 05:04:46;;;;;;;12.13;2.58;;;;;;;;;;5052296;28;20074;-76
2022/06/11 05:07:12;;;;;;;12.90;1.95;;;;;;;;;;5035285;28;20060;-76
2022/06/11 05:09:39;;;;;;;7.22;1.90;;;;;;;;;;5035393;28;20423;-76
2022/06/11 05:12:07;;;;;;;9.07;1.88;;;;;;;;;;5035356;28;20356;-76
2022/06/11 05:14:33;;;;;;;11.60;1.75;;;;;;;;;;5035312;28;20063;-76
2022/06/11 05:16:59;;;;;;;15.23;2.05;;;;;;;;;;5035287;28;20495;-76
2022/06/11 05:19:26;;;;;;;12.68;2.20;;;;;;;;;;5035195;28;20041;-76
2022/06/11 05:21:52;;;;;;;12.65;2.42;;;;;;;;;;5035034;28;20030;-76
2022/06/11 05:24:19;;;;;;;13.13;2.60;;;;;;;;;;5035324;28;20408;-76
2022/06/11 05:26:56;;;;;;;19.65;2.97;;;;;;;;;;5037309;28;20456;-76
2022/06/11 05:29:30;;;;;;;20.77;2.20;;;;;;;;;;5055053;28;20070;-76
2022/06/11 05:31:56;;;;;;;16.80;2.42;;;;;;;;;;5054668;28;20025;-75
2022/06/11 05:34:22;;;;;;;16.45;2.58;;;;;;;;;;5054794;28;20041;-75
2022/06/11 05:36:49;;;;;;;12.63;1.98;;;;;;;;;;5053258;28;20032;-76
2022/06/11 05:39:16;;;;;;;9.60;1.80;;;;;;;;;;5054613;28;20032;-75
2022/06/11 05:41:42;;;;;;;14.45;2.35;;;;;;;;;;5054414;28;20021;-76
2022/06/11 05:44:08;;;;;;;19.25;2.42;;;;;;;;;;5054845;28;20367;-76
2022/06/11 05:46:34;;;;;;;18.35;2.45;;;;;;;;;;5054211;28;20045;-75
2022/06/11 05:49:02;;;;;;;11.70;2.55;;;;;;;;;;5054391;28;20536;-76
2022/06/11 05:51:34;;;;;;;15.43;2.30;;;;;;;;;;5053007;28;20120;-76
2022/06/11 05:54:02;;;;;;;23.27;3.15;;;;;;;;;;5054165;28;20029;-76
2022/06/11 05:56:28;;;;;;;18.60;2.92;;;;;;;;;;5053056;28;20021;-75
2022/06/11 05:58:58;;;;;;;15.63;2.72;;;;;;;;;;5054410;28;20053;-76
2022/06/11 06:01:28;;;;;;;16.45;3.10;;;;;;;;;;5054472;28;20074;-75
2022/06/11 06:03:54;;;;;;;17.33;3.78;;;;;;;;;;5054373;28;20116;-75
2022/06/11 06:06:20;;;;;;;21.58;3.05;;;;;;;;;;5037773;28;20718;-75
2022/06/11 06:08:46;;;;;;;13.18;2.80;;;;;;;;;;5034302;28;20037;-76
2022/06/11 06:11:12;;;;;;;14.57;2.53;;;;;;;;;;5033990;28;20028;-76
2022/06/11 06:13:47;;;;;;;13.82;2.75;;;;;;;;;;5034137;28;20033;-75
2022/06/11 06:16:16;;;;;;;19.48;3.97;;;;;;;;;;5034033;28;20067;-76
2022/06/11 06:18:43;;;;;;;17.25;3.00;;;;;;;;;;5034131;28;20040;-76
2022/06/11 06:21:09;;;;;;;11.80;2.50;;;;;;;;;;5033973;28;20388;-76
2022/06/11 06:23:35;;;;;;;18.95;2.70;;;;;;;;;;5033971;28;20018;-76
2022/06/11 06:26:01;;;;;;;12.02;2.13;;;;;;;;;;5033774;28;20372;-76
2022/06/11 06:28:27;;;;;;;20.20;3.55;;;;;;;;;;5050237;28;20040;-76
2022/06/11 06:30:54;;;;;;;19.92;2.78;;;;;;;;;;5053682;28;20028;-76
2022/06/11 06:33:20;;;;;;;13.63;2.55;;;;;;;;;;5053773;28;20415;-76
2022/06/11 06:35:46;;;;;;;14.45;2.65;;;;;;;;;;5052140;28;20494;-76
2022/06/11 06:38:13;;;;;;;13.35;2.60;;;;;;;;;;5053163;28;20068;-76
2022/06/11 06:40:39;;;;;;;15.88;2.90;;;;;;;;;;5053626;28;20071;-76
2022/06/11 06:43:05;;;;;;;12.43;2.60;;;;;;;;;;5053191;28;20025;-76
2022/06/11 06:45:31;;;;;;;17.17;2.42;;;;;;;;;;5053188;28;20045;-76
2022/06/11 06:47:57;;;;;;;18.38;2.95;;;;;;;;;;5053203;28;20080;-76
2022/06/11 06:50:23;;;;;;;17.70;2.63;;;;;;;;;;5053158;28;20020;-76
2022/06/11 06:52:49;;;;;;;21.90;3.10;;;;;;;;;;5053361;28;20106;-76
2022/06/11 06:55:15;;;;;;;11.77;2.45;;;;;;;;;;5053191;28;20029;-76
2022/06/11 06:57:41;;;;;;;13.82;2.58;;;;;;;;;;5052945;28;20024;-75
2022/06/11 07:00:09;;;;;;;15.32;2.45;;;;;;;;;;5053086;28;20017;-75
2022/06/11 07:02:35;;;;;;;17.95;2.88;;;;;;;;;;5053020;28;20028;-74
2022/06/11 07:05:01;;;;;;;15.85;3.35;;;;;;;;;;5048188;28;20068;-74
2022/06/11 07:07:27;;;;;;;15.15;2.90;;;;;;;;;;5033052;28;20060;-74
2022/06/11 07:09:54;;;;;;;19.45;2.70;;;;;;;;;;5033129;28;20045;-74
2022/06/11 07:12:20;;;;;;;18.75;4.00;;;;;;;;;;5033057;28;20459;-75
2022/06/11 07:14:46;;;;;;;15.23;2.58;;;;;;;;;;5033063;28;20048;-74
2022/06/11 07:17:13;;;;;;;17.75;2.10;;;;;;;;;;5032877;28;20033;-74
2022/06/11 07:19:42;;;;;;;16.52;3.15;;;;;;;;;;5033120;28;20032;-74
2022/06/11 07:22:17;;;;;;;16.58;2.40;;;;;;;;;;5032835;28;20033;-75
2022/06/11 07:24:43;;;;;;;20.60;2.28;;;;;;;;;;5033288;28;20032;-76
2022/06/11 07:27:14;;;;;;;14.45;2.40;;;;;;;;;;5048062;28;20372;-75
2022/06/11 07:30:00;;;;;;;17.37;2.20;;;;;;;;;;5032907;28;20029;-74
2022/06/11 07:32:27;;;;;;;14.80;1.95;;;;;;;;;;5032751;28;20100;-74
2022/06/11 07:34:53;;;;;;;16.77;2.28;;;;;;;;;;5032962;28;20014;-75
2022/06/11 07:37:19;;;;;;;17.67;2.42;;;;;;;;;;5032673;28;20369;-74
2022/06/11 07:39:45;;;;;;;14.70;2.58;;;;;;;;;;5032800;28;20406;-74
2022/06/11 07:42:11;;;;;;;16.15;2.97;;;;;;;;;;5032807;28;20105;-74
2022/06/11 07:44:39;;;;;;;18.38;2.83;;;;;;;;;;5032766;28;20030;-74
2022/06/11 07:47:05;;;;;;;16.13;2.58;;;;;;;;;;5032433;28;20114;-75
2022/06/11 07:49:32;;;;;;;21.00;3.38;;;;;;;;;;5032682;28;20025;-74
2022/06/11 07:51:58;;;;;;;12.80;2.35;;;;;;;;;;5032635;28;20149;-74
2022/06/11 07:54:24;;;;;;;13.70;3.60;;;;;;;;;;5032467;28;20026;-74
2022/06/11 07:56:50;;;;;;;15.07;2.40;;;;;;;;;;5032463;28;20041;-74
2022/06/11 07:59:16;;;;;;;18.75;2.42;;;;;;;;;;5032518;28;20030;-74
2022/06/11 08:01:42;;;;;;;18.00;3.22;;;;;;;;;;5032494;28;20029;-74
2022/06/11 08:04:08;;;;;;;15.10;2.78;;;;;;;;;;5032654;28;20071;-74
2022/06/11 08:06:34;;;;;;;13.90;2.38;;;;;;;;;;5032622;28;20061;-74
2022/06/11 08:09:01;;;;;;;11.60;2.70;;;;;;;;;;5032318;28;20103;-75
2022/06/11 08:11:27;;;;;;;16.90;2.70;;;;;;;;;;5032494;28;20021;-74
2022/06/11 08:13:53;;;;;;;16.88;2.55;;;;;;;;;;5032130;28;20134;-74
2022/06/11 08:16:19;;;;;;;10.38;1.75;;;;;;;;;;5032165;28;20344;-75
2022/06/11 08:18:45;;;;;;;12.18;2.08;;;;;;;;;;5032093;28;20037;-74
2022/06/11 08:21:11;;;;;;;8.27;1.55;;;;;;;;;;5035826;28;20037;-74
2022/06/11 08:23:39;;;;;;;13.00;2.10;;;;;;;;;;5035889;28;20025;-74
2022/06/11 08:26:06;;;;;;;16.17;2.38;;;;;;;;;;5035643;28;20017;-74
2022/06/11 08:28:32;;;;;;;14.40;2.15;;;;;;;;;;5035765;28;20021;-74
2022/06/11 08:30:58;;;;;;;14.60;2.65;;;;;;;;;;5035583;28;20029;-74
2022/06/11 08:33:24;;;;;;;16.95;2.53;;;;;;;;;;5035821;28;20458;-74
2022/06/11 08:35:50;;;;;;;13.85;2.28;;;;;;;;;;5035419;28;20053;-74
2022/06/11 08:38:16;;;;;;;16.98;2.42;;;;;;;;;;5035283;28;20459;-74
2022/06/11 08:40:48;;;;;;;9.85;2.03;;;;;;;;;;5035229;28;20053;-75
2022/06/11 08:43:34;;;;;;;13.73;2.25;;;;;;;;;;5035110;28;20029;-74
2022/06/11 08:46:18;;;;;;;21.23;2.63;;;;;;;;;;5034682;28;20124;-74
2022/06/11 08:48:47;;;;;;;10.32;2.10;;;;;;;;;;5034953;28;20025;-74
2022/06/11 08:51:13;;;;;;;9.10;1.80;;;;;;;;;;5035064;28;20025;-74
2022/06/11 08:53:39;;;;;;;17.67;2.40;;;;;;;;;;5034811;28;20025;-74
2022/06/11 08:56:25;;;;;;;12.00;1.92;;;;;;;;;;5034719;28;20111;-74
2022/06/11 08:59:00;;;;;;;8.48;2.20;;;;;;;;;;5034809;28;20060;-74
2022/06/11 09:01:32;;;;;;;11.55;2.22;;;;;;;;;;5034973;28;20104;-74
2022/06/11 09:04:20;;;;;;;7.70;1.83;;;;;;;;;;5034861;28;20380;-74
2022/06/11 09:06:54;;;;;;;10.40;2.25;;;;;;;;;;5054425;28;20101;-74
2022/06/11 09:09:22;;;;;;;16.83;1.90;;;;;;;;;;5054650;28;20032;-74
2022/06/11 09:11:49;;;;;;;13.23;1.77;;;;;;;;;;5054609;28;20048;-74
2022/06/11 09:14:53;;;;;;;16.60;2.72;;;;;;;;;;5054681;28;20021;-74
2022/06/11 09:17:25;;;;;;;17.88;2.15;;;;;;;;;;5032529;28;20056;-74
2022/06/11 09:20:00;;;;;;;9.30;2.10;;;;;;;;;;5032562;28;20219;-74
2022/06/11 09:22:36;;;;;;;13.82;2.50;;;;;;;;;;5032506;28;20036;-74
2022/06/11 09:25:11;;;;;;;16.13;1.80;;;;;;;;;;5032685;28;20344;-77
2022/06/11 09:27:39;;;;;;;12.60;2.53;;;;;;;;;;5032142;28;20048;-75
2022/06/11 09:30:05;;;;;;;15.35;2.40;;;;;;;;;;5031098;28;20476;-74
2022/06/11 09:32:35;;;;;;;16.65;2.10;;;;;;;;;;5012483;28;20120;-74
2022/06/11 09:35:26;;;;;;;10.75;2.08;;;;;;;;;;5012145;28;20129;-74
2022/06/11 09:38:08;;;;;;;10.02;1.73;;;;;;;;;;4997405;28;20049;-74
2022/06/11 09:40:38;;;;;;;16.70;2.22;;;;;;;;;;5012158;28;20054;-74
2022/06/11 09:43:09;;;;;;;12.10;1.92;;;;;;;;;;5012123;28;20029;-74
2022/06/11 09:45:54;;;;;;;13.85;1.85;;;;;;;;;;5012068;28;20171;-74
2022/06/11 09:48:29;;;;;;;10.48;2.42;;;;;;;;;;5025901;28;20045;-74
2022/06/11 09:51:06;;;;;;;10.13;2.10;;;;;;;;;;5033888;28;20040;-74
2022/06/11 09:53:53;;;;;;;13.02;2.45;;;;;;;;;;5033983;28;20030;-74
2022/06/11 09:56:22;;;;;;;17.73;2.38;;;;;;;;;;5023614;28;20541;-74
2022/06/11 09:58:51;;;;;;;15.98;2.25;;;;;;;;;;5033895;28;20112;-74
2022/06/11 10:01:28;;;;;;;15.20;2.75;;;;;;;;;;5033618;28;20026;-74
2022/06/11 10:04:01;;;;;;;9.88;2.13;;;;;;;;;;5033889;28;20032;-74
2022/06/11 10:06:36;;;;;;;15.10;2.33;;;;;;;;;;5050616;28;20435;-74
2022/06/11 10:09:10;;;;;;;11.30;2.15;;;;;;;;;;5053784;28;20475;-73
2022/06/11 10:11:44;;;;;;;10.98;2.22;;;;;;;;;;5053755;28;20025;-74
2022/06/11 10:14:29;;;;;;;18.50;2.38;;;;;;;;;;5053663;28;20028;-74
2022/06/11 10:17:10;;;;;;;16.58;2.13;;;;;;;;;;5053819;28;20108;-74
2022/06/11 10:19:40;;;;;;;15.70;2.35;;;;;;;;;;5053622;28;20408;-74
2022/06/11 10:22:16;;;;;;;15.52;2.17;;;;;;;;;;5053775;28;20417;-74
2022/06/11 10:24:45;;;;;;;11.43;1.77;;;;;;;;;;5053208;28;20028;-74
2022/06/11 10:27:14;;;;;;;12.02;1.88;;;;;;;;;;5052996;28;20049;-74
2022/06/11 10:29:42;;;;;;;16.90;2.55;;;;;;;;;;5053241;28;20056;-74
2022/06/11 10:32:08;;;;;;;14.88;2.30;;;;;;;;;;5034966;28;20033;-74
2022/06/11 10:34:34;;;;;;;18.80;3.20;;;;;;;;;;5033320;28;20049;-74
2022/06/11 10:37:00;;;;;;;12.50;2.60;;;;;;;;;;5048229;28;20025;-74
2022/06/11 10:39:45;;;;;;;13.15;2.28;;;;;;;;;;5033195;28;20056;-74
2022/06/11 10:42:14;;;;;;;16.95;2.67;;;;;;;;;;5032394;28;20440;-74
2022/06/11 10:44:50;;;;;;;17.25;2.70;;;;;;;;;;5033183;28;20038;-74
2022/06/11 10:47:24;;;;;;;13.85;2.70;;;;;;;;;;5032940;28;20125;-74
2022/06/11 10:49:52;;;;;;;13.35;2.30;;;;;;;;;;5032856;28;20428;-74
2022/06/11 10:52:23;;;;;;;15.90;2.13;;;;;;;;;;5048173;28;20053;-74
2022/06/11 10:54:49;;;;;;;10.63;2.28;;;;;;;;;;5032706;28;20200;-74
2022/06/11 10:57:34;;;;;;;10.52;1.98;;;;;;;;;;5032536;28;20108;-74
2022/06/11 11:00:06;;;;;;;11.35;2.63;;;;;;;;;;5032776;28;20036;-74
2022/06/11 11:02:32;;;;;;;;;;;;;;;;;;5032951;28;20013;-74
2022/06/11 11:05:01;;;;;;;13.20;2.85;;;;;;;;;;5033118;28;20405;-74
2022/06/11 11:07:27;;;;;;;11.52;2.10;;;;;;;;;;5032459;28;20515;-74
2022/06/11 11:10:05;;;;;;;15.23;3.03;;;;;;;;;;5032470;28;20029;-74
2022/06/11 11:12:37;;;;;;;14.35;2.22;;;;;;;;;;5032411;28;20029;-74
2022/06/11 11:15:14;;;;;;;15.43;2.55;;;;;;;;;;5032626;28;20432;-74
2022/06/11 11:17:52;;;;;;;10.98;2.75;;;;;;;;;;5032269;28;20030;-74
2022/06/11 11:20:29;;;;;;;13.95;2.50;;;;;;;;;;5032586;28;20385;-74
2022/06/11 11:22:58;;;;;;;14.77;2.08;;;;;;;;;;5032678;28;20026;-75
2022/06/11 11:25:32;;;;;;;11.98;2.75;;;;;;;;;;5032691;28;20021;-74
2022/06/11 11:27:59;;;;;;;14.75;2.38;;;;;;;;;;5044701;28;20379;-74
2022/06/11 11:30:25;;;;;;;14.27;2.42;;;;;;;;;;5048530;28;20022;-74
2022/06/11 11:32:52;;;;;;;16.20;2.42;;;;;;;;;;5032712;28;20360;-74
2022/06/11 11:35:20;;;;;;;12.32;2.38;;;;;;;;;;5032336;28;20045;-74
2022/06/11 11:37:55;;;;;;;14.18;2.28;;;;;;;;;;5032420;28;20049;-74
2022/06/11 11:40:27;;;;;;;12.32;2.00;;;;;;;;;;5032455;28;20356;-74
2022/06/11 11:42:56;;;;;;;15.60;2.30;;;;;;;;;;5032551;28;20022;-74
2022/06/11 11:45:26;;;;;;;13.10;2.92;;;;;;;;;;5032416;28;20050;-74
2022/06/11 11:47:55;;;;;;;15.57;2.10;;;;;;;;;;5032297;28;20026;-74
2022/06/11 11:50:29;;;;;;;15.38;2.55;;;;;;;;;;5032571;28;20030;-74
2022/06/11 11:53:02;;;;;;;13.60;2.25;;;;;;;;;;5032651;28;20034;-74
2022/06/11 11:55:30;;;;;;;15.75;3.25;;;;;;;;;;5035227;28;20348;-74
2022/06/11 11:57:59;;;;;;;12.63;2.10;;;;;;;;;;5036298;28;20061;-74
2022/06/11 12:00:27;;;;;;;15.13;3.05;;;;;;;;;;5036428;28;20407;-74
2022/06/11 12:02:55;;;;;;;19.23;2.95;;;;;;;;;;5036159;28;20022;-74
2022/06/11 12:05:27;;;;;;;12.05;2.22;;;;;;;;;;5035967;28;20074;-74
2022/06/11 12:07:54;;;;;;;10.02;2.63;;;;;;;;;;5036264;28;20033;-74
2022/06/11 12:10:37;;;;;;;8.90;2.13;;;;;;;;;;5036057;28;20030;-74
2022/06/11 12:13:04;;;;;;;11.02;1.83;;;;;;;;;;5035831;28;20433;-74
2022/06/11 12:15:32;;;;;;;7.18;1.80;;;;;;;;;;5036015;28;20029;-74
2022/06/11 12:18:08;;;;;;;13.55;2.30;;;;;;;;;;5036039;28;20529;-74
2022/06/11 12:20:36;;;;;;;9.10;2.33;;;;;;;;;;5035957;28;20029;-74
2022/06/11 12:23:09;;;;;;;10.52;2.65;;;;;;;;;;5067941;28;20021;-74
2022/06/11 12:25:38;;;;;;;8.98;1.63;;;;;;;;;;5035592;28;20029;-74
2022/06/11 12:28:04;;;;;;;12.75;1.77;;;;;;;;;;5048843;28;20124;-74
2022/06/11 12:30:31;;;;;;;10.35;1.88;;;;;;;;;;5055606;28;20029;-74
2022/06/11 12:32:59;;;;;;;11.07;2.45;;;;;;;;;;5055564;28;20029;-74
2022/06/11 12:35:28;;;;;;;12.07;2.00;;;;;;;;;;5054179;28;20352;-74
2022/06/11 12:37:54;;;;;;;10.38;2.20;;;;;;;;;;5055503;28;20024;-74
2022/06/11 12:40:29;;;;;;;12.55;2.15;;;;;;;;;;5055493;28;20082;-74
2022/06/11 12:42:57;;;;;;;12.38;3.20;;;;;;;;;;5055591;28;20033;-74
2022/06/11 12:45:28;;;;;;;17.48;2.85;;;;;;;;;;5055588;28;20041;-74
2022/06/11 12:48:13;;;;;;;13.82;2.53;;;;;;;;;;5055265;28;20021;-74
2022/06/11 12:50:48;;;;;;;10.60;1.80;;;;;;;;;;5055345;28;20074;-74
2022/06/11 12:53:33;;;;;;;8.60;1.83;;;;;;;;;;5055137;28;20043;-74
2022/06/11 12:56:22;;;;;;;9.15;1.85;;;;;;;;;;5055171;28;20032;-75
2022/06/11 12:58:58;;;;;;;11.30;2.22;;;;;;;;;;4993615;28;20065;-74
2022/06/11 13:01:31;;;;;;;10.00;1.88;;;;;;;;;;4993521;28;20053;-74
2022/06/11 13:04:21;;;;;;;16.20;2.13;;;;;;;;;;4993299;28;20046;-74
2022/06/11 13:06:56;;;;;;;14.40;1.92;;;;;;;;;;4993007;28;20026;-74
2022/06/11 13:09:33;;;;;;;10.93;2.20;;;;;;;;;;4993209;28;20042;-75
2022/06/11 13:12:04;;;;;;;7.00;1.50;;;;;;;;;;4993390;28;20037;-74
2022/06/11 13:14:30;;;;;;;10.40;1.85;;;;;;;;;;4993227;28;20048;-74
2022/06/11 13:17:03;;;;;;;7.38;1.63;;;;;;;;;;4993350;28;20046;-74
2022/06/11 13:19:35;;;;;;;14.48;2.20;;;;;;;;;;4992983;28;20114;-74
2022/06/11 13:22:10;;;;;;;14.43;2.75;;;;;;;;;;4992945;28;20042;-74
2022/06/11 13:24:47;;;;;;;10.05;2.28;;;;;;;;;;4993127;28;20146;-74
2022/06/11 13:27:19;;;;;;;11.85;2.25;;;;;;;;;;4992882;28;20094;-74
2022/06/11 13:29:45;;;;;;;;;;;;;;;;;;4993123;28;20133;-74
2022/06/11 13:32:23;;;;;;;13.65;1.95;;;;;;;;;;4974773;28;19965;-74
2022/06/11 13:35:10;;;;;;;11.40;1.75;;;;;;;;;;4979681;28;20043;-74
2022/06/11 13:37:42;;;;;;;9.25;1.70;;;;;;;;;;5034325;28;20025;-75
2022/06/11 13:40:14;;;;;;;10.30;1.98;;;;;;;;;;5034260;28;20121;-75
2022/06/11 13:42:46;;;;;;;13.52;2.80;;;;;;;;;;5034062;28;20493;-75
2022/06/11 13:45:23;;;;;;;17.50;2.15;;;;;;;;;;5033895;28;20140;-75
2022/06/11 13:48:16;;;;;;;17.65;2.40;;;;;;;;;;5034141;28;20040;-74
2022/06/11 13:50:42;;;;;;;;;;;;;;;;;;5034390;28;20071;-74
2022/06/11 13:56:05;;;;;;;11.10;2.33;;;;;;;;;;5033806;28;20103;-74
2022/06/11 13:58:41;;;;;;;8.60;1.90;;;;;;;;;;5033786;28;20029;-75
2022/06/11 14:01:20;;;;;;;9.50;1.80;;;;;;;;;;5033539;28;20021;-74
2022/06/11 14:03:49;;;;;;;10.70;2.00;;;;;;;;;;5033979;28;20111;-74
2022/06/11 14:06:15;;;;;;;6.50;1.67;;;;;;;;;;5033419;28;20033;-74
2022/06/11 14:09:00;;;;;;;6.90;1.63;;;;;;;;;;5033606;28;20092;-75
2022/06/11 14:11:35;;;;;;;10.45;1.90;;;;;;;;;;5033417;28;20033;-74
2022/06/11 14:14:03;;;;;;;9.25;1.67;;;;;;;;;;5033238;28;20037;-74
2022/06/11 14:16:32;;;;;;;10.73;1.50;;;;;;;;;;5032935;28;20022;-74
2022/06/11 14:19:18;;;;;;;9.95;1.98;;;;;;;;;;5032766;28;20033;-75
2022/06/11 14:21:49;;;;;;;10.20;1.73;;;;;;;;;;5024766;28;20038;-74
2022/06/11 14:24:34;;;;;;;9.90;1.80;;;;;;;;;;5033046;28;20028;-75
2022/06/11 14:27:00;;;;;;;9.98;1.73;;;;;;;;;;5037331;28;20021;-74
2022/06/11 14:29:28;;;;;;;9.55;1.63;;;;;;;;;;5053019;28;20054;-74
2022/06/11 14:31:57;;;;;;;4.07;1.83;;;;;;;;;;5052873;28;20043;-74
2022/06/11 14:34:25;;;;;;;7.22;1.60;;;;;;;;;;5052918;28;20753;-74
2022/06/11 14:37:04;;;;;;;9.00;2.60;;;;;;;;;;5051352;28;20029;-74
2022/06/11 14:39:37;;;;;;;7.45;1.67;;;;;;;;;;5052447;28;20025;-74
2022/06/11 14:42:18;;;;;;;9.70;1.85;;;;;;;;;;5052735;28;20021;-74
2022/06/11 14:44:45;;;;;;;5.80;1.58;;;;;;;;;;5052956;28;20066;-74
2022/06/11 14:47:26;;;;;;;8.93;2.03;;;;;;;;;;5052256;28;20124;-75
2022/06/11 14:49:52;;;;;;;8.90;1.52;;;;;;;;;;5052752;28;20484;-75
2022/06/11 14:52:21;;;;;;;6.43;1.75;;;;;;;;;;5051994;28;20408;-74
2022/06/11 14:54:47;;;;;;;6.60;1.63;;;;;;;;;;5051864;28;20533;-74
2022/06/11 14:57:16;;;;;;;7.75;1.65;;;;;;;;;;5051664;28;20083;-74
2022/06/11 15:00:01;;;;;;;8.68;2.00;;;;;;;;;;5051717;28;20025;-75